createdAt,value
2023-04-16T00:00:04.701Z,0.00
2023-04-16T00:01:04.716Z,0.00
2023-04-16T00:02:04.782Z,0.00
2023-04-16T00:03:04.977Z,0.00
2023-04-16T00:04:04.866Z,0.00
2023-04-16T00:05:04.665Z,0.00
2023-04-16T00:06:04.656Z,0.00
2023-04-16T00:07:04.702Z,0.00
2023-04-16T00:08:04.632Z,0.00
2023-04-16T00:09:04.701Z,0.00
2023-04-16T00:10:04.630Z,0.00
2023-04-16T00:11:04.604Z,0.00
2023-04-16T00:12:04.575Z,0.00
2023-04-16T00:13:04.630Z,0.00
2023-04-16T00:14:04.557Z,0.00
2023-04-16T00:15:04.530Z,0.00
2023-04-16T00:16:04.531Z,0.00
2023-04-16T00:17:04.631Z,0.00
2023-04-16T00:18:04.502Z,0.00
2023-04-16T00:19:04.530Z,0.00
2023-04-16T00:20:04.510Z,0.00
2023-04-16T00:21:04.486Z,0.00
2023-04-16T00:22:04.482Z,0.00
2023-04-16T00:23:04.498Z,0.00
2023-04-16T00:24:04.441Z,0.00
2023-04-16T00:25:04.452Z,0.00
2023-04-16T00:26:04.459Z,0.00
2023-04-16T00:27:04.439Z,0.00
2023-04-16T00:28:04.489Z,0.00
2023-04-16T00:29:04.415Z,0.00
2023-04-16T00:30:04.458Z,0.00
2023-04-16T00:31:04.426Z,0.00
2023-04-16T00:32:04.404Z,0.00
2023-04-16T00:33:04.394Z,0.00
2023-04-16T00:34:04.412Z,0.00
2023-04-16T00:35:04.326Z,0.00
2023-04-16T00:36:04.403Z,0.00
2023-04-16T00:37:04.358Z,0.00
2023-04-16T00:38:04.330Z,0.00
2023-04-16T00:39:04.316Z,0.00
2023-04-16T00:40:04.299Z,0.00
2023-04-16T00:41:04.316Z,0.00
2023-04-16T00:42:04.310Z,0.00
2023-04-16T00:43:04.280Z,0.00
2023-04-16T00:44:04.250Z,0.00
2023-04-16T00:45:04.248Z,0.00
2023-04-16T00:46:04.276Z,0.00
2023-04-16T00:47:04.217Z,0.00
2023-04-16T00:48:04.274Z,0.00
2023-04-16T00:49:04.240Z,0.00
2023-04-16T00:50:04.210Z,0.00
2023-04-16T00:51:04.197Z,0.00
2023-04-16T00:52:04.161Z,0.00
2023-04-16T00:53:04.214Z,0.00
2023-04-16T00:54:04.187Z,0.00
2023-04-16T00:55:04.176Z,0.00
2023-04-16T00:56:04.167Z,0.00
2023-04-16T00:57:04.139Z,0.00
2023-04-16T00:58:04.090Z,0.00
2023-04-16T00:59:04.108Z,0.00
2023-04-16T01:00:04.081Z,0.00
2023-04-16T01:01:04.143Z,0.00
2023-04-16T01:02:04.188Z,0.00
2023-04-16T01:03:04.199Z,0.00
2023-04-16T01:04:04.172Z,0.00
2023-04-16T01:05:04.018Z,0.00
2023-04-16T01:06:04.069Z,0.00
2023-04-16T01:07:04.005Z,0.00
2023-04-16T01:08:04.022Z,0.00
2023-04-16T01:09:04.032Z,0.00
2023-04-16T01:10:03.991Z,0.00
2023-04-16T01:11:03.976Z,0.00
2023-04-16T01:12:04.006Z,0.00
2023-04-16T01:13:04.005Z,0.00
2023-04-16T01:14:04.004Z,0.00
2023-04-16T01:15:03.938Z,0.00
2023-04-16T01:16:03.981Z,0.00
2023-04-16T01:17:03.895Z,0.00
2023-04-16T01:18:03.954Z,0.00
2023-04-16T01:19:03.912Z,0.00
2023-04-16T01:20:03.915Z,0.00
2023-04-16T01:21:03.904Z,0.00
2023-04-16T01:22:03.865Z,0.00
2023-04-16T01:23:03.872Z,0.00
2023-04-16T01:24:03.860Z,0.00
2023-04-16T01:25:03.876Z,0.00
2023-04-16T01:26:03.805Z,0.00
2023-04-16T01:27:03.873Z,0.00
2023-04-16T01:28:03.809Z,0.00
2023-04-16T01:29:03.819Z,0.00
2023-04-16T01:30:03.788Z,0.00
2023-04-16T01:31:03.850Z,0.00
2023-04-16T01:32:03.773Z,0.00
2023-04-16T01:33:03.734Z,0.00
2023-04-16T01:34:03.781Z,0.00
2023-04-16T01:35:03.727Z,0.00
2023-04-16T01:36:03.744Z,0.00
2023-04-16T01:37:03.701Z,0.00
2023-04-16T01:38:03.757Z,0.00
2023-04-16T01:39:03.721Z,0.00
2023-04-16T01:40:03.685Z,0.00
2023-04-16T01:41:03.671Z,0.00
2023-04-16T01:42:04.671Z,0.00
2023-04-16T01:43:03.669Z,0.00
2023-04-16T01:44:03.717Z,0.00
2023-04-16T01:45:03.629Z,0.00
2023-04-16T01:46:03.633Z,0.00
2023-04-16T01:47:03.620Z,0.00
2023-04-16T01:48:03.630Z,0.00
2023-04-16T01:49:03.581Z,0.00
2023-04-16T01:50:03.590Z,0.00
2023-04-16T01:51:03.597Z,0.00
2023-04-16T01:52:03.604Z,0.00
2023-04-16T01:53:03.553Z,0.00
2023-04-16T01:54:03.535Z,0.00
2023-04-16T01:55:03.594Z,0.00
2023-04-16T01:56:03.518Z,0.00
2023-04-16T01:57:03.574Z,0.00
2023-04-16T01:58:03.491Z,0.00
2023-04-16T01:59:03.525Z,0.00
2023-04-16T02:00:03.512Z,0.00
2023-04-16T02:01:03.548Z,0.00
2023-04-16T02:02:03.609Z,0.00
2023-04-16T02:03:03.647Z,0.00
2023-04-16T02:04:03.507Z,0.00
2023-04-16T02:05:03.494Z,0.00
2023-04-16T02:06:03.477Z,0.00
2023-04-16T02:07:03.461Z,0.00
2023-04-16T02:08:03.424Z,0.00
2023-04-16T02:09:03.408Z,0.00
2023-04-16T02:10:03.426Z,0.00
2023-04-16T02:11:03.398Z,0.00
2023-04-16T02:12:03.374Z,0.00
2023-04-16T02:13:03.358Z,0.00
2023-04-16T02:14:03.368Z,0.00
2023-04-16T02:15:03.371Z,0.00
2023-04-16T02:16:03.367Z,0.00
2023-04-16T02:17:04.325Z,0.00
2023-04-16T02:18:03.377Z,0.00
2023-04-16T02:19:03.325Z,0.00
2023-04-16T02:20:03.350Z,0.00
2023-04-16T02:21:03.321Z,0.00
2023-04-16T02:22:03.263Z,0.00
2023-04-16T02:23:03.288Z,0.00
2023-04-16T02:24:03.269Z,0.00
2023-04-16T02:25:04.413Z,0.00
2023-04-16T02:26:03.303Z,0.00
2023-04-16T02:27:03.328Z,0.00
2023-04-16T02:28:03.244Z,0.00
2023-04-16T02:29:03.291Z,0.00
2023-04-16T02:30:03.199Z,0.00
2023-04-16T02:31:03.218Z,0.00
2023-04-16T02:32:03.182Z,0.00
2023-04-16T02:33:03.268Z,0.00
2023-04-16T02:34:03.166Z,0.00
2023-04-16T02:35:03.167Z,0.00
2023-04-16T02:36:03.126Z,0.00
2023-04-16T02:37:03.210Z,0.00
2023-04-16T02:38:03.150Z,0.00
2023-04-16T02:39:03.089Z,0.00
2023-04-16T02:40:03.082Z,0.00
2023-04-16T02:41:03.076Z,0.00
2023-04-16T02:42:35.002Z,0.00
2023-04-16T02:43:03.038Z,0.00
2023-04-16T02:44:03.030Z,0.00
2023-04-16T02:45:03.028Z,0.00
2023-04-16T02:46:03.071Z,0.00
2023-04-16T02:47:03.013Z,0.00
2023-04-16T02:48:03.073Z,0.00
2023-04-16T02:49:03.004Z,0.00
2023-04-16T02:50:02.978Z,0.00
2023-04-16T02:51:02.981Z,0.00
2023-04-16T02:52:02.957Z,0.00
2023-04-16T02:53:02.933Z,0.00
2023-04-16T02:54:02.936Z,0.00
2023-04-16T02:55:02.917Z,0.00
2023-04-16T02:56:02.937Z,0.00
2023-04-16T02:57:02.898Z,0.00
2023-04-16T02:58:02.875Z,0.00
2023-04-16T02:59:02.897Z,0.00
2023-04-16T03:00:02.980Z,0.00
2023-04-16T03:01:02.886Z,0.00
2023-04-16T03:02:02.900Z,0.00
2023-04-16T03:03:02.936Z,0.00
2023-04-16T03:04:02.823Z,0.00
2023-04-16T03:05:02.885Z,0.00
2023-04-16T03:06:02.843Z,0.00
2023-04-16T03:07:02.798Z,0.00
2023-04-16T03:08:02.789Z,0.00
2023-04-16T03:09:02.794Z,0.00
2023-04-16T03:10:02.760Z,0.00
2023-04-16T03:11:02.770Z,0.00
2023-04-16T03:12:02.770Z,0.00
2023-04-16T03:13:02.777Z,0.00
2023-04-16T03:14:02.821Z,0.00
2023-04-16T03:15:02.739Z,0.00
2023-04-16T03:16:02.747Z,0.00
2023-04-16T03:17:02.691Z,0.00
2023-04-16T03:18:02.680Z,0.00
2023-04-16T03:19:02.686Z,0.00
2023-04-16T03:20:02.669Z,0.00
2023-04-16T03:21:02.629Z,0.00
2023-04-16T03:22:02.696Z,0.00
2023-04-16T03:23:02.642Z,0.00
2023-04-16T03:24:02.623Z,0.00
2023-04-16T03:25:02.646Z,0.00
2023-04-16T03:26:02.601Z,0.00
2023-04-16T03:27:02.572Z,0.00
2023-04-16T03:28:02.611Z,0.00
2023-04-16T03:29:02.581Z,0.00
2023-04-16T03:30:02.668Z,0.00
2023-04-16T03:31:02.595Z,0.00
2023-04-16T03:32:02.563Z,0.00
2023-04-16T03:33:02.569Z,0.00
2023-04-16T03:34:02.515Z,0.00
2023-04-16T03:35:02.518Z,0.00
2023-04-16T03:36:02.550Z,0.00
2023-04-16T03:37:02.491Z,0.00
2023-04-16T03:38:02.466Z,0.00
2023-04-16T03:39:02.470Z,0.00
2023-04-16T03:40:02.485Z,0.00
2023-04-16T03:41:02.477Z,0.00
2023-04-16T03:42:02.479Z,0.00
2023-04-16T03:43:02.490Z,0.00
2023-04-16T03:44:02.419Z,0.00
2023-04-16T03:45:02.463Z,0.00
2023-04-16T03:46:02.429Z,0.00
2023-04-16T03:47:02.432Z,0.00
2023-04-16T03:48:02.399Z,0.00
2023-04-16T03:49:02.363Z,0.00
2023-04-16T03:50:02.373Z,0.00
2023-04-16T03:51:02.355Z,0.00
2023-04-16T03:52:02.364Z,0.00
2023-04-16T03:53:02.361Z,0.00
2023-04-16T03:54:02.346Z,0.00
2023-04-16T03:55:02.340Z,0.00
2023-04-16T03:56:02.300Z,0.00
2023-04-16T03:57:02.395Z,0.00
2023-04-16T03:58:02.298Z,0.00
2023-04-16T03:59:02.320Z,0.00
2023-04-16T04:00:02.309Z,0.00
2023-04-16T04:01:02.273Z,0.00
2023-04-16T04:02:02.327Z,0.00
2023-04-16T04:03:02.624Z,0.00
2023-04-16T04:04:02.385Z,0.00
2023-04-16T04:05:02.400Z,0.00
2023-04-16T04:06:02.225Z,0.00
2023-04-16T04:07:02.268Z,0.00
2023-04-16T04:08:02.249Z,0.00
2023-04-16T04:09:02.202Z,0.00
2023-04-16T04:10:02.180Z,0.00
2023-04-16T04:11:02.171Z,4.00
2023-04-16T04:12:02.204Z,4.00
2023-04-16T04:13:02.183Z,0.00
2023-04-16T04:14:02.155Z,0.00
2023-04-16T04:15:02.131Z,0.00
2023-04-16T04:16:02.219Z,4.00
2023-04-16T04:17:02.106Z,4.00
2023-04-16T04:18:02.192Z,8.00
2023-04-16T04:19:02.124Z,8.00
2023-04-16T04:20:02.282Z,8.00
2023-04-16T04:21:02.102Z,8.00
2023-04-16T04:22:02.086Z,8.00
2023-04-16T04:23:02.058Z,12.00
2023-04-16T04:24:02.101Z,12.00
2023-04-16T04:25:02.008Z,12.00
2023-04-16T04:26:02.068Z,16.00
2023-04-16T04:27:02.048Z,16.00
2023-04-16T04:28:02.045Z,20.00
2023-04-16T04:29:01.992Z,20.00
2023-04-16T04:30:01.991Z,24.00
2023-04-16T04:31:02.003Z,24.00
2023-04-16T04:32:02.192Z,24.00
2023-04-16T04:33:02.017Z,28.00
2023-04-16T04:34:01.936Z,32.00
2023-04-16T04:35:02.014Z,36.00
2023-04-16T04:36:01.926Z,36.00
2023-04-16T04:37:01.894Z,44.00
2023-04-16T04:38:02.591Z,44.00
2023-04-16T04:39:01.896Z,44.00
2023-04-16T04:40:01.875Z,48.00
2023-04-16T04:41:01.856Z,48.00
2023-04-16T04:42:01.876Z,48.00
2023-04-16T04:43:01.820Z,56.00
2023-04-16T04:44:01.883Z,60.00
2023-04-16T04:45:01.846Z,68.00
2023-04-16T04:46:01.849Z,64.00
2023-04-16T04:47:01.917Z,60.00
2023-04-16T04:48:01.889Z,76.00
2023-04-16T04:49:01.798Z,80.00
2023-04-16T04:50:01.792Z,84.00
2023-04-16T04:51:03.525Z,88.00
2023-04-16T04:52:01.766Z,100.00
2023-04-16T04:53:01.849Z,100.00
2023-04-16T04:54:01.754Z,104.00
2023-04-16T04:55:01.754Z,96.00
2023-04-16T04:56:09.185Z,100.00
2023-04-16T04:57:03.745Z,100.00
2023-04-16T04:58:01.700Z,104.00
2023-04-16T04:59:01.748Z,120.00
2023-04-16T05:00:01.705Z,140.00
2023-04-16T05:01:01.704Z,156.00
2023-04-16T05:02:01.710Z,160.00
2023-04-16T05:03:01.666Z,176.00
2023-04-16T05:04:01.709Z,176.00
2023-04-16T05:05:01.718Z,164.00
2023-04-16T05:06:01.657Z,160.00
2023-04-16T05:07:01.636Z,156.00
2023-04-16T05:08:01.687Z,164.00
2023-04-16T05:09:01.603Z,160.00
2023-04-16T05:10:01.611Z,164.00
2023-04-16T05:11:01.600Z,160.00
2023-04-16T05:12:01.580Z,148.00
2023-04-16T05:13:01.540Z,160.00
2023-04-16T05:14:01.555Z,172.00
2023-04-16T05:15:01.566Z,180.00
2023-04-16T05:16:01.591Z,164.00
2023-04-16T05:17:01.780Z,160.00
2023-04-16T05:18:02.630Z,156.00
2023-04-16T05:19:01.491Z,148.00
2023-04-16T05:20:01.533Z,148.00
2023-04-16T05:21:01.470Z,152.00
2023-04-16T05:22:01.462Z,168.00
2023-04-16T05:23:01.469Z,164.00
2023-04-16T05:24:01.411Z,156.00
2023-04-16T05:25:01.494Z,168.00
2023-04-16T05:26:01.415Z,180.00
2023-04-16T05:27:01.440Z,184.00
2023-04-16T05:28:01.410Z,204.00
2023-04-16T05:29:01.396Z,216.00
2023-04-16T05:30:01.385Z,208.00
2023-04-16T05:31:01.417Z,200.00
2023-04-16T05:32:01.352Z,204.00
2023-04-16T05:33:01.339Z,224.00
2023-04-16T05:34:01.333Z,240.00
2023-04-16T05:35:01.375Z,228.00
2023-04-16T05:36:01.313Z,244.00
2023-04-16T05:37:01.328Z,272.00
2023-04-16T05:38:01.285Z,280.00
2023-04-16T05:39:01.271Z,296.00
2023-04-16T05:40:01.259Z,300.00
2023-04-16T05:41:01.291Z,288.00
2023-04-16T05:42:01.264Z,260.00
2023-04-16T05:43:01.246Z,280.00
2023-04-16T05:44:01.267Z,296.00
2023-04-16T05:45:01.213Z,276.00
2023-04-16T05:46:01.219Z,256.00
2023-04-16T05:47:01.170Z,240.00
2023-04-16T05:48:01.257Z,232.00
2023-04-16T05:49:01.172Z,240.00
2023-04-16T05:50:01.245Z,248.00
2023-04-16T05:51:01.156Z,232.00
2023-04-16T05:52:01.143Z,220.00
2023-04-16T05:53:01.121Z,228.00
2023-04-16T05:54:01.162Z,236.00
2023-04-16T05:55:01.137Z,260.00
2023-04-16T05:56:01.167Z,312.00
2023-04-16T05:57:01.112Z,356.00
2023-04-16T05:58:01.113Z,420.00
2023-04-16T05:59:01.123Z,420.00
2023-04-16T06:00:01.072Z,420.00
2023-04-16T06:01:01.056Z,396.00
2023-04-16T06:02:01.089Z,452.00
2023-04-16T06:03:01.315Z,428.00
2023-04-16T06:04:01.061Z,404.00
2023-04-16T06:05:01.061Z,420.00
2023-04-16T06:06:01.039Z,408.00
2023-04-16T06:07:00.985Z,420.00
2023-04-16T06:08:01.408Z,408.00
2023-04-16T06:09:01.009Z,444.00
2023-04-16T06:10:00.989Z,460.00
2023-04-16T06:11:00.981Z,476.00
2023-04-16T06:12:00.949Z,472.00
2023-04-16T06:13:00.984Z,432.00
2023-04-16T06:14:00.953Z,448.00
2023-04-16T06:15:00.905Z,492.00
2023-04-16T06:16:00.937Z,464.00
2023-04-16T06:17:00.901Z,468.00
2023-04-16T06:18:01.195Z,500.00
2023-04-16T06:19:00.885Z,464.00
2023-04-16T06:20:00.876Z,488.00
2023-04-16T06:21:00.886Z,492.00
2023-04-16T06:22:00.894Z,508.00
2023-04-16T06:23:00.870Z,540.00
2023-04-16T06:24:00.819Z,540.00
2023-04-16T06:25:00.830Z,528.00
2023-04-16T06:26:00.815Z,552.00
2023-04-16T06:27:00.819Z,556.00
2023-04-16T06:28:00.864Z,580.00
2023-04-16T06:29:00.841Z,584.00
2023-04-16T06:30:00.873Z,624.00
2023-04-16T06:31:00.784Z,732.00
2023-04-16T06:32:00.784Z,792.00
2023-04-16T06:33:00.772Z,864.00
2023-04-16T06:34:00.852Z,864.00
2023-04-16T06:35:00.762Z,940.00
2023-04-16T06:36:00.730Z,900.00
2023-04-16T06:37:00.701Z,924.00
2023-04-16T06:38:00.701Z,956.00
2023-04-16T06:39:00.715Z,956.00
2023-04-16T06:40:00.717Z,956.00
2023-04-16T06:41:00.662Z,984.00
2023-04-16T06:42:00.665Z,920.00
2023-04-16T06:43:00.678Z,916.00
2023-04-16T06:44:00.630Z,900.00
2023-04-16T06:45:00.672Z,988.00
2023-04-16T06:46:00.633Z,964.00
2023-04-16T06:47:00.756Z,976.00
2023-04-16T06:48:00.686Z,1048.00
2023-04-16T06:49:00.585Z,1140.00
2023-04-16T06:50:00.599Z,1228.00
2023-04-16T06:51:00.591Z,1364.00
2023-04-16T06:52:00.576Z,1268.00
2023-04-16T06:53:00.602Z,1272.00
2023-04-16T06:54:00.525Z,1320.00
2023-04-16T06:55:00.547Z,1396.00
2023-04-16T06:56:00.524Z,1244.00
2023-04-16T06:57:00.552Z,1148.00
2023-04-16T06:58:00.560Z,1164.00
2023-04-16T06:59:01.534Z,1176.00
2023-04-16T07:00:00.481Z,1244.00
2023-04-16T07:01:00.476Z,1268.00
2023-04-16T07:02:00.530Z,1372.00
2023-04-16T07:03:00.625Z,1584.00
2023-04-16T07:04:00.588Z,1636.00
2023-04-16T07:05:00.441Z,1564.00
2023-04-16T07:06:00.490Z,1496.00
2023-04-16T07:07:00.409Z,1544.00
2023-04-16T07:08:00.411Z,1712.00
2023-04-16T07:09:00.474Z,2028.00
2023-04-16T07:10:00.420Z,1912.00
2023-04-16T07:11:00.515Z,1808.00
2023-04-16T07:12:00.380Z,1736.00
2023-04-16T07:13:00.375Z,1848.00
2023-04-16T07:14:00.319Z,1912.00
2023-04-16T07:15:00.340Z,1952.00
2023-04-16T07:16:00.361Z,2028.00
2023-04-16T07:17:00.334Z,2176.00
2023-04-16T07:18:00.420Z,2460.00
2023-04-16T07:19:00.307Z,2440.00
2023-04-16T07:20:00.267Z,2204.00
2023-04-16T07:21:00.249Z,1936.00
2023-04-16T07:22:00.290Z,1908.00
2023-04-16T07:23:00.264Z,1844.00
2023-04-16T07:24:00.273Z,1864.00
2023-04-16T07:25:00.257Z,1896.00
2023-04-16T07:26:00.223Z,1888.00
2023-04-16T07:27:01.197Z,1784.00
2023-04-16T07:28:00.270Z,1724.00
2023-04-16T07:29:00.215Z,1760.00
2023-04-16T07:30:00.208Z,1828.00
2023-04-16T07:31:00.181Z,1880.00
2023-04-16T07:32:00.277Z,1944.00
2023-04-16T07:33:00.205Z,1816.00
2023-04-16T07:34:00.149Z,1624.00
2023-04-16T07:35:00.139Z,1640.00
2023-04-16T07:36:00.125Z,1628.00
2023-04-16T07:37:00.141Z,1616.00
2023-04-16T07:38:00.136Z,1552.00
2023-04-16T07:39:00.160Z,1480.00
2023-04-16T07:40:00.115Z,1532.00
2023-04-16T07:41:00.137Z,1636.00
2023-04-16T07:42:00.039Z,1808.00
2023-04-16T07:43:00.062Z,1940.00
2023-04-16T07:44:00.029Z,1944.00
2023-04-16T07:45:00.095Z,2188.00
2023-04-16T07:46:00.122Z,2164.00
2023-04-16T07:47:00.034Z,2096.00
2023-04-16T07:48:00.027Z,2032.00
2023-04-16T07:49:00.002Z,2004.00
2023-04-16T07:50:00.046Z,1880.00
2023-04-16T07:50:59.999Z,1888.00
2023-04-16T07:51:59.958Z,2056.00
2023-04-16T07:52:59.962Z,2116.00
2023-04-16T07:53:59.962Z,2152.00
2023-04-16T07:54:59.963Z,2384.00
2023-04-16T07:55:59.926Z,2460.00
2023-04-16T07:56:59.938Z,2660.00
2023-04-16T07:57:59.906Z,2704.00
2023-04-16T07:59:14.492Z,2712.00
2023-04-16T08:00:00.893Z,3004.00
2023-04-16T08:00:59.874Z,3088.00
2023-04-16T08:01:59.886Z,2840.00
2023-04-16T08:03:00.037Z,2844.00
2023-04-16T08:03:59.967Z,2552.00
2023-04-16T08:04:59.925Z,2524.00
2023-04-16T08:05:59.822Z,2396.00
2023-04-16T08:06:59.816Z,2204.00
2023-04-16T08:07:59.821Z,2128.00
2023-04-16T08:08:59.834Z,2200.00
2023-04-16T08:09:59.787Z,2264.00
2023-04-16T08:10:59.810Z,2224.00
2023-04-16T08:11:59.785Z,2096.00
2023-04-16T08:12:59.760Z,1944.00
2023-04-16T08:13:59.757Z,2172.00
2023-04-16T08:14:59.734Z,2216.00
2023-04-16T08:15:59.766Z,2296.00
2023-04-16T08:16:59.716Z,2476.00
2023-04-16T08:17:59.794Z,2520.00
2023-04-16T08:18:59.709Z,2640.00
2023-04-16T08:19:59.715Z,2612.00
2023-04-16T08:20:59.679Z,2636.00
2023-04-16T08:22:00.709Z,2720.00
2023-04-16T08:22:59.648Z,2728.00
2023-04-16T08:23:59.692Z,2772.00
2023-04-16T08:24:59.653Z,2960.00
2023-04-16T08:25:59.640Z,2968.00
2023-04-16T08:27:08.085Z,2832.00
2023-04-16T08:28:00.627Z,2796.00
2023-04-16T08:28:59.611Z,2764.00
2023-04-16T08:29:59.578Z,2880.00
2023-04-16T08:30:59.612Z,3056.00
2023-04-16T08:31:59.610Z,3000.00
2023-04-16T08:32:59.599Z,2808.00
2023-04-16T08:34:00.611Z,2564.00
2023-04-16T08:34:59.554Z,2352.00
2023-04-16T08:35:59.546Z,2408.00
2023-04-16T08:36:59.531Z,2524.00
2023-04-16T08:38:01.745Z,2648.00
2023-04-16T08:38:59.576Z,2628.00
2023-04-16T08:39:59.506Z,2696.00
2023-04-16T08:40:59.498Z,2768.00
2023-04-16T08:41:59.528Z,2748.00
2023-04-16T08:43:31.402Z,2804.00
2023-04-16T08:43:59.536Z,2924.00
2023-04-16T08:44:59.504Z,2948.00
2023-04-16T08:45:59.468Z,3048.00
2023-04-16T08:46:59.643Z,3328.00
2023-04-16T08:47:59.453Z,3384.00
2023-04-16T08:48:59.457Z,3428.00
2023-04-16T08:49:59.428Z,3480.00
2023-04-16T08:50:59.441Z,3232.00
2023-04-16T08:51:59.390Z,3236.00
2023-04-16T08:52:59.371Z,3176.00
2023-04-16T08:53:59.387Z,3416.00
2023-04-16T08:54:59.368Z,3540.00
2023-04-16T08:55:59.364Z,3556.00
2023-04-16T08:56:59.320Z,3596.00
2023-04-16T08:57:59.348Z,3960.00
2023-04-16T08:58:59.367Z,3852.00
2023-04-16T08:59:59.332Z,3776.00
2023-04-16T09:00:59.310Z,3704.00
2023-04-16T09:01:59.379Z,3712.00
2023-04-16T09:02:59.540Z,3896.00
2023-04-16T09:03:59.416Z,4016.00
2023-04-16T09:04:59.277Z,4372.00
2023-04-16T09:05:59.286Z,4564.00
2023-04-16T09:06:59.254Z,4740.00
2023-04-16T09:07:59.244Z,4912.00
2023-04-16T09:09:00.272Z,4724.00
2023-04-16T09:09:59.354Z,4456.00
2023-04-16T09:10:59.228Z,4352.00
2023-04-16T09:11:59.222Z,4164.00
2023-04-16T09:12:59.244Z,4136.00
2023-04-16T09:13:59.184Z,4188.00
2023-04-16T09:14:59.173Z,4220.00
2023-04-16T09:15:59.264Z,3856.00
2023-04-16T09:16:59.151Z,3976.00
2023-04-16T09:17:59.236Z,3732.00
2023-04-16T09:18:59.164Z,3408.00
2023-04-16T09:19:59.129Z,3040.00
2023-04-16T09:20:59.103Z,2988.00
2023-04-16T09:21:59.109Z,3024.00
2023-04-16T09:22:59.079Z,3184.00
2023-04-16T09:23:59.119Z,3200.00
2023-04-16T09:24:59.129Z,3216.00
2023-04-16T09:25:59.040Z,2904.00
2023-04-16T09:26:59.115Z,2568.00
2023-04-16T09:27:59.054Z,2784.00
2023-04-16T09:28:59.021Z,2796.00
2023-04-16T09:29:59.086Z,2596.00
2023-04-16T09:30:59.026Z,2704.00
2023-04-16T09:31:59.071Z,2976.00
2023-04-16T09:32:59.034Z,3220.00
2023-04-16T09:33:59.000Z,3244.00
2023-04-16T09:34:59.014Z,3196.00
2023-04-16T09:35:58.949Z,3020.00
2023-04-16T09:36:58.955Z,2652.00
2023-04-16T09:37:58.943Z,2328.00
2023-04-16T09:38:58.964Z,2216.00
2023-04-16T09:39:58.906Z,2192.00
2023-04-16T09:40:58.917Z,2136.00
2023-04-16T09:41:58.908Z,2376.00
2023-04-16T09:42:58.894Z,2164.00
2023-04-16T09:43:59.865Z,2056.00
2023-04-16T09:45:00.304Z,2176.00
2023-04-16T09:45:59.954Z,2016.00
2023-04-16T09:46:58.926Z,1956.00
2023-04-16T09:47:58.905Z,1816.00
2023-04-16T09:48:58.871Z,1828.00
2023-04-16T09:49:58.821Z,1792.00
2023-04-16T09:50:58.822Z,1696.00
2023-04-16T09:51:58.795Z,1768.00
2023-04-16T09:52:58.801Z,1932.00
2023-04-16T09:53:58.763Z,1928.00
2023-04-16T09:54:58.830Z,1872.00
2023-04-16T09:55:58.763Z,1832.00
2023-04-16T09:56:58.768Z,1740.00
2023-04-16T09:57:58.750Z,1720.00
2023-04-16T09:58:58.734Z,1708.00
2023-04-16T09:59:58.734Z,1732.00
2023-04-16T10:00:58.753Z,1624.00
2023-04-16T10:02:14.464Z,1612.00
2023-04-16T10:02:59.855Z,1628.00
2023-04-16T10:03:58.789Z,1684.00
2023-04-16T10:04:58.718Z,1628.00
2023-04-16T10:05:58.665Z,1528.00
2023-04-16T10:06:58.669Z,1544.00
2023-04-16T10:07:58.675Z,1592.00
2023-04-16T10:08:58.687Z,1592.00
2023-04-16T10:09:58.650Z,1560.00
2023-04-16T10:10:58.640Z,1552.00
2023-04-16T10:11:58.658Z,1576.00
2023-04-16T10:12:58.619Z,1644.00
2023-04-16T10:13:58.588Z,1720.00
2023-04-16T10:14:58.588Z,1736.00
2023-04-16T10:15:58.587Z,1736.00
2023-04-16T10:16:58.612Z,1776.00
2023-04-16T10:17:58.651Z,1668.00
2023-04-16T10:18:58.523Z,1688.00
2023-04-16T10:19:58.598Z,1832.00
2023-04-16T10:20:58.525Z,1900.00
2023-04-16T10:21:58.543Z,2032.00
2023-04-16T10:22:58.606Z,2280.00
2023-04-16T10:23:58.471Z,2492.00
2023-04-16T10:24:58.458Z,2684.00
2023-04-16T10:25:58.491Z,2840.00
2023-04-16T10:26:58.464Z,2876.00
2023-04-16T10:27:58.450Z,3264.00
2023-04-16T10:28:58.452Z,3600.00
2023-04-16T10:29:58.482Z,3592.00
2023-04-16T10:30:58.420Z,3536.00
2023-04-16T10:31:58.464Z,3720.00
2023-04-16T10:33:00.440Z,3892.00
2023-04-16T10:33:59.399Z,4012.00
2023-04-16T10:34:58.410Z,4088.00
2023-04-16T10:36:07.440Z,3972.00
2023-04-16T10:36:59.361Z,4008.00
2023-04-16T10:37:58.385Z,4248.00
2023-04-16T10:38:58.385Z,4504.00
2023-04-16T10:39:58.347Z,4652.00
2023-04-16T10:40:58.311Z,4552.00
2023-04-16T10:41:58.318Z,4188.00
2023-04-16T10:42:58.400Z,4020.00
2023-04-16T10:43:58.337Z,4272.00
2023-04-16T10:44:58.281Z,4056.00
2023-04-16T10:45:58.338Z,3824.00
2023-04-16T10:46:58.246Z,4072.00
2023-04-16T10:47:58.316Z,4216.00
2023-04-16T10:48:58.288Z,4536.00
2023-04-16T10:49:58.262Z,4408.00
2023-04-16T10:50:58.185Z,4644.00
2023-04-16T10:51:58.234Z,4912.00
2023-04-16T10:52:58.214Z,5292.00
2023-04-16T10:53:58.220Z,5692.00
2023-04-16T10:54:58.184Z,5904.00
2023-04-16T10:55:58.209Z,6040.00
2023-04-16T10:56:58.156Z,6136.00
2023-04-16T10:57:58.181Z,6192.00
2023-04-16T10:58:58.169Z,6304.00
2023-04-16T10:59:58.130Z,6236.00
2023-04-16T11:00:58.105Z,6312.00
2023-04-16T11:01:58.250Z,6092.00
2023-04-16T11:02:58.238Z,6224.00
2023-04-16T11:03:58.343Z,6120.00
2023-04-16T11:04:58.118Z,5592.00
2023-04-16T11:05:58.094Z,5112.00
2023-04-16T11:06:58.058Z,5092.00
2023-04-16T11:07:58.083Z,4860.00
2023-04-16T11:08:58.051Z,4568.00
2023-04-16T11:09:58.045Z,4192.00
2023-04-16T11:10:58.129Z,3872.00
2023-04-16T11:11:58.013Z,3612.00
2023-04-16T11:12:57.984Z,3300.00
2023-04-16T11:13:58.014Z,3176.00
2023-04-16T11:14:58.083Z,3024.00
2023-04-16T11:15:58.001Z,2848.00
2023-04-16T11:16:58.012Z,2648.00
2023-04-16T11:17:58.019Z,2568.00
2023-04-16T11:18:57.962Z,2528.00
2023-04-16T11:19:57.934Z,2472.00
2023-04-16T11:20:57.923Z,2500.00
2023-04-16T11:21:57.940Z,2508.00
2023-04-16T11:22:57.981Z,2464.00
2023-04-16T11:23:57.896Z,2300.00
2023-04-16T11:24:57.882Z,2268.00
2023-04-16T11:25:57.909Z,2288.00
2023-04-16T11:26:57.898Z,2320.00
2023-04-16T11:27:57.937Z,2376.00
2023-04-16T11:28:57.860Z,2384.00
2023-04-16T11:29:57.941Z,2420.00
2023-04-16T11:30:58.831Z,2244.00
2023-04-16T11:31:57.791Z,2192.00
2023-04-16T11:32:57.860Z,2344.00
2023-04-16T11:33:57.875Z,2268.00
2023-04-16T11:34:57.769Z,2160.00
2023-04-16T11:35:57.786Z,2216.00
2023-04-16T11:36:57.764Z,2408.00
2023-04-16T11:37:57.799Z,2696.00
2023-04-16T11:38:57.782Z,3008.00
2023-04-16T11:39:57.732Z,3120.00
2023-04-16T11:40:57.727Z,3192.00
2023-04-16T11:41:57.779Z,3196.00
2023-04-16T11:42:59.293Z,3216.00
2023-04-16T11:43:58.676Z,3112.00
2023-04-16T11:44:57.737Z,3200.00
2023-04-16T11:45:57.659Z,3324.00
2023-04-16T11:46:57.696Z,3480.00
2023-04-16T11:47:57.678Z,3596.00
2023-04-16T11:48:57.658Z,3736.00
2023-04-16T11:49:57.627Z,3716.00
2023-04-16T11:50:57.637Z,3552.00
2023-04-16T11:51:57.608Z,3428.00
2023-04-16T11:52:57.632Z,3632.00
2023-04-16T11:53:57.589Z,3636.00
2023-04-16T11:54:57.600Z,3544.00
2023-04-16T11:55:57.552Z,3232.00
2023-04-16T11:56:57.564Z,3052.00
2023-04-16T11:57:57.582Z,2948.00
2023-04-16T11:58:57.550Z,2788.00
2023-04-16T12:00:02.408Z,2660.00
2023-04-16T12:00:58.534Z,2764.00
2023-04-16T12:01:57.591Z,2840.00
2023-04-16T12:02:57.693Z,2692.00
2023-04-16T12:03:57.776Z,2456.00
2023-04-16T12:04:57.566Z,2448.00
2023-04-16T12:05:57.502Z,2420.00
2023-04-16T12:06:57.441Z,2436.00
2023-04-16T12:07:57.473Z,2500.00
2023-04-16T12:08:57.491Z,2456.00
2023-04-16T12:09:57.420Z,2508.00
2023-04-16T12:10:57.453Z,2720.00
2023-04-16T12:11:57.435Z,2808.00
2023-04-16T12:12:57.415Z,2920.00
2023-04-16T12:13:57.396Z,3428.00
2023-04-16T12:14:57.379Z,3924.00
2023-04-16T12:15:57.379Z,4304.00
2023-04-16T12:16:57.442Z,4476.00
2023-04-16T12:17:57.441Z,4756.00
2023-04-16T12:18:57.347Z,4796.00
2023-04-16T12:19:57.336Z,4868.00
2023-04-16T12:20:57.302Z,4900.00
2023-04-16T12:21:57.328Z,4488.00
2023-04-16T12:22:57.369Z,4884.00
2023-04-16T12:23:57.326Z,4500.00
2023-04-16T12:24:57.300Z,4136.00
2023-04-16T12:25:57.260Z,4212.00
2023-04-16T12:26:57.296Z,4260.00
2023-04-16T12:27:57.271Z,4304.00
2023-04-16T12:28:57.383Z,4456.00
2023-04-16T12:29:57.298Z,5376.00
2023-04-16T12:30:57.232Z,5704.00
2023-04-16T12:31:57.205Z,4856.00
2023-04-16T12:32:59.176Z,3960.00
2023-04-16T12:33:58.224Z,3804.00
2023-04-16T12:34:57.179Z,3896.00